Time;durP1;ratioP1;P1;durP2;ratioP2;P2;SDS_P1;SDS_P2;PMS_P1;PMS_P2;Temp;Humidity;BMP_temperature;BMP_pressure;BME280_temperature;BME280_humidity;BME280_pressure;Samples;Min_cycle;Max_cycle;Signal;HPM_P1;HPM_P2
2023/12/26 00:02:02;;;;;;;36.78;21.48;;;;;;;5.33;82.38;100142.78;5051629;28;20056;-77
2023/12/26 00:04:27;;;;;;;34.92;19.65;;;;;;;5.14;84.50;100165.31;5050024;28;20137;-78
2023/12/26 00:06:52;;;;;;;35.25;20.33;;;;;;;5.07;85.22;100174.94;5048757;28;20021;-79
2023/12/26 00:09:18;;;;;;;35.95;19.98;;;;;;;4.48;87.38;100159.78;5049144;28;20029;-77
2023/12/26 00:11:46;;;;;;;34.08;19.33;;;;;;;4.36;89.16;100177.84;5051499;28;20052;-78
2023/12/26 00:14:16;;;;;;;32.30;19.48;;;;;;;4.23;89.28;100183.72;5049635;28;20051;-78
2023/12/26 00:16:42;;;;;;;33.35;18.75;;;;;;;3.92;89.46;100144.13;5030860;28;20493;-80
2023/12/26 00:19:08;;;;;;;29.70;18.20;;;;;;;3.88;92.51;100170.03;5048611;28;20485;-79
2023/12/26 00:21:34;;;;;;;31.95;17.70;;;;;;;4.14;90.37;100171.53;5051031;28;20036;-78
2023/12/26 00:23:59;;;;;;;33.08;16.88;;;;;;;4.12;90.78;100186.75;5048864;28;20035;-79
2023/12/26 00:26:25;;;;;;;43.42;25.45;;;;;;;4.51;88.60;100176.06;5048796;28;20025;-78
2023/12/26 00:28:50;;;;;;;30.42;16.92;;;;;;;4.43;90.48;100190.19;5048408;28;20033;-78
2023/12/26 00:31:16;;;;;;;31.23;19.20;;;;;;;4.32;89.70;100156.25;5033229;28;20033;-78
2023/12/26 00:33:41;;;;;;;26.98;14.40;;;;;;;4.53;90.86;100158.22;5048215;28;20029;-79
2023/12/26 00:36:12;;;;;;;25.88;14.68;;;;;;;4.99;89.01;100162.66;5048211;28;20033;-77
2023/12/26 00:38:38;;;;;;;27.15;13.82;;;;;;;5.21;89.09;100177.63;5047999;28;20391;-78
2023/12/26 00:41:05;;;;;;;23.02;12.60;;;;;;;5.12;86.94;100162.84;5050259;28;20035;-79
2023/12/26 00:43:30;;;;;;;50.55;29.80;;;;;;;5.47;85.60;100178.19;5048213;28;20440;-77
2023/12/26 00:45:56;;;;;;;33.08;19.85;;;;;;;5.31;86.08;100168.59;5048318;28;20032;-78
2023/12/26 00:48:21;;;;;;;40.63;24.52;;;;;;;5.48;85.37;100196.50;5048578;28;20031;-79
2023/12/26 00:50:47;;;;;;;42.30;25.30;;;;;;;5.54;85.83;100193.13;5049900;28;20422;-79
2023/12/26 00:53:12;;;;;;;33.33;18.55;;;;;;;5.54;85.84;100193.13;5048131;28;20025;-78
2023/12/26 00:55:38;;;;;;;31.98;17.10;;;;;;;5.56;85.85;100190.31;5048048;28;20111;-78
2023/12/26 00:58:03;;;;;;;34.60;20.10;;;;;;;5.60;85.68;100197.69;5047884;28;20029;-79
2023/12/26 01:00:29;;;;;;;37.03;18.40;;;;;;;5.73;85.28;100191.75;5047864;28;20032;-78
2023/12/26 01:02:54;;;;;;;29.33;16.80;;;;;;;5.83;84.06;100202.06;5032560;28;20037;-77
2023/12/26 01:05:20;;;;;;;26.13;15.70;;;;;;;5.66;82.79;100180.28;5047428;28;20501;-78
2023/12/26 01:07:45;;;;;;;27.15;15.10;;;;;;;5.73;83.28;100190.94;5047856;28;20025;-78
2023/12/26 01:10:11;;;;;;;25.88;15.73;;;;;;;5.55;83.99;100186.00;5047858;28;20033;-78
2023/12/26 01:12:37;;;;;;;26.10;15.05;;;;;;;5.71;82.41;100193.75;5050015;28;20024;-78
2023/12/26 01:15:02;;;;;;;25.95;14.95;;;;;;;5.59;82.14;100189.94;5047850;28;20187;-78
2023/12/26 01:17:28;;;;;;;28.52;15.20;;;;;;;5.46;83.47;100185.28;5029907;28;20032;-80
2023/12/26 01:19:53;;;;;;;28.42;16.40;;;;;;;5.21;84.71;100187.34;5047533;28;20033;-77
2023/12/26 01:22:19;;;;;;;29.92;17.35;;;;;;;5.10;86.70;100196.56;5047720;28;20444;-78
2023/12/26 01:24:44;;;;;;;36.42;20.00;;;;;;;5.16;86.14;100185.25;5047565;28;20033;-77
2023/12/26 01:27:09;;;;;;;35.08;20.35;;;;;;;4.71;87.34;100159.75;5047543;28;20051;-78
2023/12/26 01:29:35;;;;;;;33.08;19.00;;;;;;;4.56;88.19;100157.09;5029528;28;20120;-79
2023/12/26 01:32:01;;;;;;;35.28;19.83;;;;;;;4.80;87.12;100191.22;5049418;28;20033;-79
2023/12/26 01:34:26;;;;;;;32.42;17.45;;;;;;;4.81;86.65;100182.28;5047475;28;20379;-79
2023/12/26 01:36:52;;;;;;;30.50;17.48;;;;;;;5.01;85.50;100192.38;5047644;28;20059;-78
2023/12/26 01:39:17;;;;;;;29.48;16.23;;;;;;;5.04;85.15;100176.13;5047579;28;20032;-78
2023/12/26 01:41:43;;;;;;;30.08;16.95;;;;;;;5.17;84.59;100181.63;5047344;28;20082;-78
2023/12/26 01:44:08;;;;;;;28.25;16.23;;;;;;;5.23;84.07;100202.06;5047205;28;20115;-80
2023/12/26 01:46:34;;;;;;;25.95;15.82;;;;;;;5.20;85.75;100202.41;5047346;28;20056;-78
2023/12/26 01:49:00;;;;;;;27.35;15.77;;;;;;;5.13;85.44;100204.16;5047178;28;20029;-78
2023/12/26 01:51:29;;;;;;;34.17;21.48;;;;;;;5.06;86.13;100205.84;5046928;28;20021;-78
2023/12/26 01:53:54;;;;;;;30.45;19.67;;;;;;;4.94;86.78;100207.28;5047276;28;20032;-78
2023/12/26 01:56:21;;;;;;;32.15;16.80;;;;;;;4.32;89.49;100198.50;5049498;28;20017;-78
2023/12/26 01:58:49;;;;;;;29.63;17.45;;;;;;;4.51;88.08;100201.66;5068404;28;20041;-77
2023/12/26 02:01:15;;;;;;;27.77;15.32;;;;;;;4.85;87.91;100203.88;5067070;28;20028;-78
2023/12/26 02:03:41;;;;;;;30.90;18.23;;;;;;;4.82;86.37;100210.38;5027244;28;20036;-77
2023/12/26 02:06:08;;;;;;;32.53;17.15;;;;;;;4.58;87.21;100203.44;5027260;28;20396;-78
2023/12/26 02:08:35;;;;;;;24.73;15.35;;;;;;;4.33;87.98;100208.06;5027156;28;20028;-79
2023/12/26 02:11:00;;;;;;;64.18;36.30;;;;;;;4.69;85.63;100212.75;5030339;28;20056;-79
2023/12/26 02:13:26;;;;;;;48.28;26.88;;;;;;;4.57;85.11;100211.53;5049742;28;20056;-78
2023/12/26 02:15:54;;;;;;;38.47;22.38;;;;;;;4.25;86.14;100207.28;5047040;28;20115;-78
2023/12/26 02:18:20;;;;;;;30.73;18.38;;;;;;;4.03;86.13;100178.88;5047321;28;20087;-79
2023/12/26 02:20:46;;;;;;;29.27;16.67;;;;;;;3.79;88.67;100200.09;5029230;28;20056;-80
2023/12/26 02:23:11;;;;;;;33.75;18.02;;;;;;;3.11;90.78;100193.53;5049586;28;20053;-78
2023/12/26 02:25:37;;;;;;;30.85;17.45;;;;;;;3.25;90.23;100207.81;5047148;28;20048;-79
2023/12/26 02:28:05;;;;;;;28.60;17.20;;;;;;;2.61;92.36;100198.78;5047253;28;20025;-79
2023/12/26 02:30:32;;;;;;;27.55;17.10;;;;;;;2.86;92.63;100226.97;5029231;28;20029;-79
2023/12/26 02:33:00;;;;;;;30.60;18.88;;;;;;;3.04;91.46;100193.34;5049152;28;20767;-78
2023/12/26 02:35:27;;;;;;;29.97;16.47;;;;;;;3.75;87.55;100227.81;5047025;28;20167;-78
2023/12/26 02:37:52;;;;;;;31.95;17.33;;;;;;;3.47;88.83;100225.56;5049992;28;20025;-79
2023/12/26 02:40:18;;;;;;;35.28;16.98;;;;;;;2.94;90.43;100213.78;5050379;28;20456;-78
2023/12/26 02:42:43;;;;;;;28.77;18.52;;;;;;;2.78;92.89;100204.91;5052732;28;20560;-78
2023/12/26 02:45:09;;;;;;;32.05;17.05;;;;;;;3.55;89.53;100222.91;5050642;28;20032;-77
2023/12/26 02:47:35;;;;;;;28.50;15.45;;;;;;;3.65;88.75;100208.72;5050608;28;20033;-78
2023/12/26 02:50:00;;;;;;;24.77;14.68;;;;;;;3.41;91.32;100223.59;5032625;28;20107;-79
2023/12/26 02:52:25;;;;;;;31.73;15.80;;;;;;;2.81;93.16;100204.56;5052571;28;20028;-78
2023/12/26 02:54:51;;;;;;;32.95;18.15;;;;;;;3.32;90.90;100224.63;5050448;28;20053;-78
2023/12/26 02:57:16;;;;;;;29.13;16.00;;;;;;;3.68;90.56;100248.78;5050165;28;20413;-77
2023/12/26 02:59:42;;;;;;;34.35;15.55;;;;;;;3.48;91.72;100192.94;5050406;28;20024;-78
2023/12/26 03:02:07;;;;;;;29.80;15.93;;;;;;;3.63;92.82;100235.25;5049898;28;20025;-79
2023/12/26 03:04:32;;;;;;;26.80;13.65;;;;;;;3.68;92.29;100226.81;5050003;28;20037;-78
2023/12/26 03:06:58;;;;;;;36.25;19.92;;;;;;;3.88;91.42;100224.63;5050090;28;20561;-78
2023/12/26 03:09:23;;;;;;;27.15;13.70;;;;;;;3.81;92.36;100220.03;5031920;28;20037;-78
2023/12/26 03:11:49;;;;;;;28.38;14.15;;;;;;;3.96;92.40;100227.22;5052487;28;20021;-79
2023/12/26 03:14:15;;;;;;;25.15;15.00;;;;;;;3.96;92.25;100209.59;5050332;28;20033;-78
2023/12/26 03:16:40;;;;;;;24.77;14.07;;;;;;;3.57;95.65;100205.09;5031976;28;20029;-78
2023/12/26 03:19:06;;;;;;;27.17;14.43;;;;;;;3.96;94.03;100229.84;5049658;28;20405;-79
2023/12/26 03:21:31;;;;;;;22.00;13.43;;;;;;;4.11;93.60;100232.63;5051178;28;20029;-78
2023/12/26 03:23:56;;;;;;;20.85;12.73;;;;;;;4.06;91.12;100238.38;5051154;28;20021;-78
2023/12/26 03:26:22;;;;;;;23.85;13.10;;;;;;;3.82;91.08;100218.19;5049898;28;20106;-78
2023/12/26 03:28:47;;;;;;;26.17;13.45;;;;;;;3.77;92.40;100236.38;5049843;28;20107;-78
2023/12/26 03:31:13;;;;;;;26.25;14.35;;;;;;;3.54;95.09;100252.91;5049552;28;20032;-77
2023/12/26 03:33:38;;;;;;;26.35;14.73;;;;;;;3.53;94.23;100216.97;5052563;28;20102;-78
2023/12/26 03:36:04;;;;;;;26.17;14.73;;;;;;;3.89;92.09;100250.84;5049244;28;20033;-80
2023/12/26 03:38:30;;;;;;;28.13;18.40;;;;;;;3.85;91.04;100249.53;5031943;28;20101;-79
2023/12/26 03:40:56;;;;;;;26.98;16.75;;;;;;;3.77;90.83;100236.38;5049484;28;20108;-78
2023/12/26 03:43:22;;;;;;;28.33;16.00;;;;;;;3.87;89.79;100247.53;5049481;28;20025;-78
2023/12/26 03:45:48;;;;;;;25.30;15.18;;;;;;;3.89;90.22;100261.38;5049853;28;20044;-78
2023/12/26 03:48:14;;;;;;;25.75;15.57;;;;;;;3.54;91.49;100231.00;5050092;28;20017;-78
2023/12/26 03:50:39;;;;;;;27.15;15.20;;;;;;;3.58;93.03;100262.13;5049751;28;20086;-79
2023/12/26 03:53:05;;;;;;;27.75;14.95;;;;;;;3.44;92.32;100262.81;5063119;28;20104;-79
2023/12/26 03:55:30;;;;;;;25.95;15.40;;;;;;;3.34;94.11;100275.38;5070395;28;20032;-78
2023/12/26 03:57:56;;;;;;;26.33;16.02;;;;;;;3.13;94.24;100271.41;5070600;28;20098;-78
2023/12/26 04:00:21;;;;;;;29.80;16.48;;;;;;;3.03;93.65;100215.44;5070232;28;20064;-77
2023/12/26 04:02:47;;;;;;;27.85;16.38;;;;;;;3.75;91.56;100293.75;5075059;28;20103;-79
2023/12/26 04:05:13;;;;;;;28.40;16.08;;;;;;;3.87;90.96;100300.31;5082513;28;20104;-78
2023/12/26 04:07:38;;;;;;;30.08;16.33;;;;;;;3.95;90.38;100281.81;5082573;28;20052;-77
2023/12/26 04:10:04;;;;;;;33.83;17.30;;;;;;;3.90;90.28;100296.50;5081621;28;20028;-78
2023/12/26 04:12:31;;;;;;;31.48;16.25;;;;;;;3.33;92.36;100255.25;5073831;28;20070;-79
2023/12/26 04:14:57;;;;;;;27.05;16.15;;;;;;;3.67;90.75;100304.31;5061188;28;20020;-78
2023/12/26 04:17:22;;;;;;;31.35;17.27;;;;;;;3.92;90.31;100284.78;5061909;28;20029;-78
2023/12/26 04:19:48;;;;;;;34.60;18.42;;;;;;;3.91;89.72;100301.63;5063202;28;20025;-79
2023/12/26 04:22:14;;;;;;;29.92;17.73;;;;;;;3.79;90.46;100295.88;5066764;28;20077;-79
2023/12/26 04:24:39;;;;;;;32.10;17.13;;;;;;;3.85;91.29;100318.13;5063617;28;20063;-79
2023/12/26 04:27:06;;;;;;;26.38;15.65;;;;;;;3.69;91.47;100297.06;5064480;28;20098;-79
2023/12/26 04:29:31;;;;;;;25.55;15.10;;;;;;;3.82;91.03;100313.16;5063188;28;20025;-78
2023/12/26 04:31:57;;;;;;;24.10;14.30;;;;;;;3.37;92.31;100288.19;5063980;28;20084;-79
2023/12/26 04:34:22;;;;;;;40.13;18.02;;;;;;;2.93;95.78;100323.59;5081471;28;20028;-79
2023/12/26 04:36:48;;;;;;;31.60;17.00;;;;;;;2.77;96.01;100313.88;5078940;28;20392;-78
2023/12/26 04:39:13;;;;;;;35.97;18.95;;;;;;;3.10;93.90;100310.44;5075985;28;20029;-79
2023/12/26 04:41:39;;;;;;;28.15;17.98;;;;;;;2.66;94.78;100316.81;5071202;28;20142;-77
2023/12/26 04:44:04;;;;;;;30.35;17.40;;;;;;;2.91;93.50;100325.59;5051196;28;20033;-78
2023/12/26 04:46:30;;;;;;;26.13;15.18;;;;;;;2.44;91.60;100327.94;5050405;28;20359;-78
2023/12/26 04:48:55;;;;;;;27.52;14.90;;;;;;;1.46;92.19;100297.53;5031845;28;20036;-79
2023/12/26 04:51:21;;;;;;;22.65;14.32;;;;;;;1.04;94.25;100300.78;5048959;28;20029;-79
2023/12/26 04:53:47;;;;;;;27.20;15.20;;;;;;;1.41;94.31;100305.06;5051726;28;20037;-77
2023/12/26 04:56:19;;;;;;;26.92;14.63;;;;;;;1.00;96.51;100329.19;5049233;28;20033;-77
2023/12/26 04:58:47;;;;;;;31.38;17.90;;;;;;;0.76;98.63;100300.06;5048238;28;20060;-78
2023/12/26 05:01:13;;;;;;;37.20;22.33;;;;;;;1.78;95.87;100332.91;5048369;28;20497;-78
2023/12/26 05:03:39;;;;;;;29.27;18.80;;;;;;;1.96;94.30;100312.63;5050616;28;20044;-78
2023/12/26 05:06:05;;;;;;;31.58;20.52;;;;;;;2.24;92.41;100315.03;5047803;28;20477;-78
2023/12/26 05:08:31;;;;;;;31.88;18.92;;;;;;;2.68;91.30;100335.09;5029557;28;20405;-78
2023/12/26 05:10:56;;;;;;;32.50;18.85;;;;;;;2.69;90.45;100332.28;5047893;28;20025;-79
2023/12/26 05:13:22;;;;;;;30.70;18.85;;;;;;;2.62;90.83;100299.69;5050133;28;20025;-77
2023/12/26 05:15:47;;;;;;;30.50;17.25;;;;;;;2.73;90.43;100349.41;5047949;28;20042;-77
2023/12/26 05:18:13;;;;;;;29.17;17.90;;;;;;;2.54;91.00;100323.38;5029917;28;20049;-78
2023/12/26 05:20:38;;;;;;;32.20;18.23;;;;;;;2.76;90.85;100354.38;5047992;28;20063;-79
2023/12/26 05:23:04;;;;;;;30.13;18.75;;;;;;;2.90;91.70;100349.44;5050048;28;20438;-78
2023/12/26 05:25:29;;;;;;;30.00;18.58;;;;;;;2.76;91.69;100333.31;5047408;28;20139;-78
2023/12/26 05:27:55;;;;;;;34.88;20.17;;;;;;;2.41;94.43;100350.13;5048006;28;20025;-78
2023/12/26 05:30:20;;;;;;;40.67;23.10;;;;;;;2.41;95.81;100318.53;5047693;28;20064;-78
2023/12/26 05:32:46;;;;;;;38.20;22.45;;;;;;;2.96;91.69;100330.34;5032028;28;20040;-77
2023/12/26 05:35:11;;;;;;;37.30;22.25;;;;;;;2.94;91.20;100321.78;5047704;28;20036;-78
2023/12/26 05:37:36;;;;;;;39.03;20.15;;;;;;;3.09;91.08;100346.53;5029826;28;20029;-78
2023/12/26 05:40:02;;;;;;;41.30;22.75;;;;;;;3.29;89.93;100343.56;5047779;28;20537;-78
2023/12/26 05:42:28;;;;;;;34.72;19.88;;;;;;;3.09;90.54;100348.34;5049596;28;20090;-77
2023/12/26 05:44:55;;;;;;;35.97;22.00;;;;;;;3.19;90.87;100334.00;5027550;28;20041;-78
2023/12/26 05:47:20;;;;;;;108.88;51.97;;;;;;;2.64;93.40;100347.75;5027357;28;20022;-78
2023/12/26 05:49:46;;;;;;;128.85;62.67;;;;;;;2.54;96.11;100371.56;5027942;28;20045;-77
2023/12/26 05:52:11;;;;;;;52.13;28.55;;;;;;;2.20;96.82;100350.53;5030057;28;20108;-78
2023/12/26 05:54:37;;;;;;;63.15;31.10;;;;;;;2.65;93.93;100367.81;5047470;28;20048;-79
2023/12/26 05:57:03;;;;;;;44.17;25.45;;;;;;;1.82;96.97;100357.91;5047519;28;20024;-80
2023/12/26 05:59:28;;;;;;;49.22;27.90;;;;;;;1.96;96.36;100359.97;5046907;28;20543;-78
2023/12/26 06:01:54;;;;;;;45.63;25.33;;;;;;;1.66;98.21;100344.66;5047026;28;20108;-79
2023/12/26 06:04:19;;;;;;;51.42;29.02;;;;;;;1.79;97.88;100366.09;5049595;28;20119;-78
2023/12/26 06:06:44;;;;;;;51.50;28.70;;;;;;;2.47;94.75;100388.16;5047314;28;20578;-79
2023/12/26 06:09:10;;;;;;;44.22;25.90;;;;;;;2.56;95.07;100385.41;5047145;28;20039;-78
2023/12/26 06:11:35;;;;;;;43.90;24.13;;;;;;;2.15;98.67;100379.13;5049444;28;20017;-78
2023/12/26 06:14:01;;;;;;;45.25;24.52;;;;;;;1.97;99.34;100389.72;5046726;28;20119;-79
2023/12/26 06:16:26;;;;;;;45.63;24.60;;;;;;;2.19;97.07;100378.66;5071075;28;20032;-78
2023/12/26 06:18:52;;;;;;;50.35;25.35;;;;;;;1.86;97.33;100355.75;5071392;28;20028;-79
2023/12/26 06:21:17;;;;;;;47.22;25.77;;;;;;;2.20;97.22;100395.28;5053032;28;20033;-78
2023/12/26 06:23:42;;;;;;;103.88;29.50;;;;;;;2.62;94.14;100373.41;5038762;28;20112;-78
2023/12/26 06:26:08;;;;;;;52.88;29.58;;;;;;;2.48;94.83;100402.97;5050728;28;20032;-80
2023/12/26 06:28:34;;;;;;;69.30;43.53;;;;;;;2.04;96.09;100363.59;5051122;28;20091;-77
2023/12/26 06:30:59;;;;;;;79.05;46.15;;;;;;;2.77;91.98;100371.81;5050732;28;20028;-79
2023/12/26 06:33:25;;;;;;;59.67;33.05;;;;;;;2.94;92.02;100404.31;5058444;28;20028;-79
2023/12/26 06:35:50;;;;;;;102.13;51.00;;;;;;;2.90;93.66;100397.72;5070749;28;20033;-79
2023/12/26 06:38:16;;;;;;;103.05;50.22;;;;;;;2.90;91.53;100371.38;5070819;28;20561;-78
2023/12/26 06:40:42;;;;;;;67.32;38.78;;;;;;;3.23;93.21;100413.59;5070548;28;20029;-78
2023/12/26 06:43:10;;;;;;;53.20;30.77;;;;;;;3.07;93.43;100393.28;5061909;28;20880;-78
2023/12/26 06:45:36;;;;;;;63.53;34.00;;;;;;;3.27;92.17;100377.16;5050481;28;20082;-79
2023/12/26 06:48:02;;;;;;;47.10;26.00;;;;;;;3.39;92.07;100389.03;5050593;28;20044;-78
2023/12/26 06:50:27;;;;;;;71.93;44.10;;;;;;;3.44;91.58;100404.38;5032492;28;20037;-78
2023/12/26 06:52:53;;;;;;;51.65;30.88;;;;;;;3.07;93.09;100403.84;5052733;28;20543;-78
2023/12/26 06:55:18;;;;;;;37.78;23.17;;;;;;;3.39;92.42;100413.59;5032448;28;20086;-78
2023/12/26 06:57:43;;;;;;;43.40;25.40;;;;;;;3.60;89.43;100384.09;5050461;28;20032;-78
2023/12/26 07:00:09;;;;;;;46.17;25.20;;;;;;;3.86;88.70;100398.09;5032233;28;20025;-78
2023/12/26 07:02:35;;;;;;;35.97;21.90;;;;;;;3.92;91.21;100408.78;5050207;28;20043;-78
2023/12/26 07:05:00;;;;;;;38.38;22.50;;;;;;;3.95;90.44;100376.81;5052467;28;20064;-79
2023/12/26 07:07:26;;;;;;;34.40;19.67;;;;;;;4.38;90.10;100387.91;5032329;28;20032;-78
2023/12/26 07:09:51;;;;;;;29.13;19.13;;;;;;;4.25;94.26;100403.47;5050046;28;20704;-77
2023/12/26 07:12:17;;;;;;;29.25;18.75;;;;;;;4.38;94.99;100411.66;5049948;28;20033;-78
2023/12/26 07:14:42;;;;;;;29.88;19.73;;;;;;;4.85;92.04;100415.28;5055628;28;20033;-78
2023/12/26 07:17:08;;;;;;;35.75;22.42;;;;;;;4.87;91.61;100405.38;5032120;28;20025;-78
2023/12/26 07:19:33;;;;;;;42.08;26.00;;;;;;;4.87;92.72;100399.28;5049515;28;20091;-78
2023/12/26 07:21:59;;;;;;;52.30;30.38;;;;;;;4.86;90.46;100394.97;5049211;28;20021;-78
2023/12/26 07:24:24;;;;;;;39.15;25.85;;;;;;;5.18;87.84;100399.25;5051666;28;20044;-79
2023/12/26 07:26:50;;;;;;;41.83;22.38;;;;;;;5.15;90.12;100421.56;5049788;28;20486;-78
2023/12/26 07:29:15;;;;;;;49.42;22.65;;;;;;;5.28;89.88;100393.72;5049768;28;20025;-77
2023/12/26 07:31:41;;;;;;;42.72;22.00;;;;;;;4.98;90.82;100383.00;5049631;28;20083;-79
2023/12/26 07:34:09;;;;;;;177.90;69.07;;;;;;;5.32;91.31;100411.72;5052279;28;20402;-80
2023/12/26 07:36:35;;;;;;;36.92;19.35;;;;;;;5.43;91.83;100402.53;5049259;28;20409;-78
2023/12/26 07:39:01;;;;;;;43.38;20.42;;;;;;;5.99;88.42;100434.03;5049525;28;20115;-79
2023/12/26 07:41:26;;;;;;;31.15;16.95;;;;;;;5.99;89.09;100432.22;5049561;28;20029;-79
2023/12/26 07:43:53;;;;;;;37.42;22.17;;;;;;;6.28;87.73;100403.28;5049345;28;20029;-78
2023/12/26 07:46:20;;;;;;;31.90;19.27;;;;;;;6.56;84.56;100419.34;5049349;28;20083;-78
2023/12/26 07:48:46;;;;;;;31.88;18.63;;;;;;;6.33;86.25;100407.00;5049174;28;20029;-79
2023/12/26 07:51:12;;;;;;;31.48;17.30;;;;;;;6.41;85.38;100406.94;5049289;28;20079;-79
2023/12/26 07:53:37;;;;;;;25.20;16.20;;;;;;;6.57;84.78;100415.69;5048552;28;20025;-78
2023/12/26 07:56:03;;;;;;;24.90;14.95;;;;;;;6.47;85.44;100404.56;5049133;28;20402;-78
2023/12/26 07:58:29;;;;;;;24.55;15.20;;;;;;;6.64;83.20;100416.63;5049437;28;20043;-78
2023/12/26 08:00:54;;;;;;;23.38;14.90;;;;;;;6.51;86.21;100411.94;5048835;28;20051;-78
2023/12/26 08:03:19;;;;;;;20.70;13.35;;;;;;;6.89;81.54;100424.25;5048546;28;20044;-79
2023/12/26 08:05:45;;;;;;;23.38;13.27;;;;;;;6.73;86.43;100415.50;5048809;28;20482;-79
2023/12/26 08:08:11;;;;;;;23.48;13.60;;;;;;;6.92;84.33;100387.56;5030810;28;20099;-78
2023/12/26 08:10:37;;;;;;;20.85;12.38;;;;;;;7.07;83.82;100406.13;5048960;28;20036;-78
2023/12/26 08:13:04;;;;;;;22.45;14.82;;;;;;;7.35;84.93;100435.38;5049365;28;20083;-78
2023/12/26 08:15:30;;;;;;;24.83;15.43;;;;;;;7.49;83.63;100425.72;5050553;28;20047;-77
2023/12/26 08:17:56;;;;;;;23.58;15.52;;;;;;;7.70;83.19;100432.03;5048561;28;20088;-78
2023/12/26 08:20:23;;;;;;;26.27;15.75;;;;;;;7.91;81.98;100391.38;5049004;28;20068;-78
2023/12/26 08:22:48;;;;;;;25.92;16.50;;;;;;;7.79;80.49;100401.69;5047709;28;20033;-78
2023/12/26 08:25:14;;;;;;;25.25;16.60;;;;;;;8.13;78.20;100416.84;5049275;28;20087;-79
2023/12/26 08:27:40;;;;;;;21.98;14.93;;;;;;;8.40;77.24;100423.16;5048826;28;20697;-78
2023/12/26 08:30:07;;;;;;;19.67;13.02;;;;;;;8.44;76.38;100421.78;5048614;28;20025;-78
2023/12/26 08:32:33;;;;;;;24.92;16.20;;;;;;;8.87;75.67;100402.13;5048068;28;20032;-77
2023/12/26 08:34:59;;;;;;;25.67;16.17;;;;;;;9.28;72.70;100419.03;5047129;28;20033;-78
2023/12/26 08:37:25;;;;;;;22.27;15.02;;;;;;;9.30;73.71;100419.66;5048528;28;20021;-78
2023/12/26 08:39:50;;;;;;;19.75;14.68;;;;;;;9.45;73.05;100420.28;5048380;28;20087;-79
2023/12/26 08:42:15;;;;;;;21.50;16.23;;;;;;;9.52;73.56;100409.63;5048394;28;20063;-79
2023/12/26 08:44:41;;;;;;;18.90;12.52;;;;;;;9.55;74.80;100434.00;5029989;28;20087;-78
2023/12/26 08:47:06;;;;;;;17.90;11.32;;;;;;;9.99;70.66;100427.28;5048279;28;20060;-77
2023/12/26 08:49:32;;;;;;;18.20;10.98;;;;;;;10.15;72.17;100415.34;5030439;28;20036;-79
2023/12/26 08:51:58;;;;;;;18.33;10.50;;;;;;;10.22;70.65;100394.84;5048186;28;20722;-78
2023/12/26 08:54:23;;;;;;;17.75;10.75;;;;;;;10.39;69.81;100405.09;5047499;28;20494;-78
2023/12/26 08:56:49;;;;;;;16.33;10.05;;;;;;;10.75;68.80;100420.56;5047752;28;20537;-77
2023/12/26 08:59:14;;;;;;;17.02;10.40;;;;;;;10.85;67.34;100412.94;5047883;28;20021;-78
2023/12/26 09:01:40;;;;;;;15.85;10.50;;;;;;;11.07;68.63;100407.28;5048164;28;20029;-78
2023/12/26 09:04:06;;;;;;;16.98;10.73;;;;;;;11.31;67.19;100407.56;5050339;28;20052;-79
2023/12/26 09:06:32;;;;;;;15.55;8.93;;;;;;;11.29;67.47;100410.44;5029638;28;20044;-77
2023/12/26 09:08:58;;;;;;;14.93;8.63;;;;;;;11.50;65.52;100417.28;5048009;28;20114;-78
2023/12/26 09:11:23;;;;;;;14.50;8.38;;;;;;;11.59;66.87;100416.00;5047815;28;20105;-80
2023/12/26 09:13:49;;;;;;;15.48;8.18;;;;;;;11.39;66.34;100409.97;5049445;28;20025;-78
2023/12/26 09:16:14;;;;;;;13.65;7.60;;;;;;;11.76;64.85;100404.75;5047715;28;20037;-78
2023/12/26 09:18:40;;;;;;;15.88;8.35;;;;;;;11.94;65.95;100412.06;5029705;28;20029;-77
2023/12/26 09:21:06;;;;;;;14.40;7.80;;;;;;;12.12;65.55;100411.28;5047697;28;20021;-77
2023/12/26 09:23:31;;;;;;;13.68;7.53;;;;;;;11.84;65.33;100407.16;5047514;28;20828;-78
2023/12/26 09:25:57;;;;;;;13.65;7.60;;;;;;;12.40;64.08;100398.22;5047367;28;20064;-78
2023/12/26 09:28:23;;;;;;;13.43;7.03;;;;;;;12.69;62.43;100387.81;5047799;28;20519;-78
2023/12/26 09:30:48;;;;;;;12.45;7.68;;;;;;;13.04;60.40;100403.22;5047102;28;20025;-79
2023/12/26 09:33:14;;;;;;;12.10;7.57;;;;;;;12.83;60.18;100399.16;5047398;28;20059;-78
2023/12/26 09:35:39;;;;;;;14.73;7.18;;;;;;;13.06;60.69;100391.22;5049860;28;20021;-79
2023/12/26 09:38:05;;;;;;;19.35;10.43;;;;;;;16.52;52.71;100401.28;5047312;28;20402;-78
2023/12/26 09:40:30;;;;;;;37.55;15.85;;;;;;;17.62;49.44;100393.03;5047451;28;20104;-78
2023/12/26 09:43:02;;;;;;;24.77;14.60;;;;;;;18.02;51.09;100391.72;5047349;28;20067;-79
2023/12/26 09:45:27;;;;;;;32.35;19.52;;;;;;;18.53;47.34;100380.38;5050471;28;20036;-79
2023/12/26 09:47:53;;;;;;;16.63;9.25;;;;;;;18.59;45.88;100389.28;5051542;28;20028;-78
2023/12/26 09:50:20;;;;;;;15.77;9.57;;;;;;;19.57;42.43;100382.22;5051376;28;20040;-78
2023/12/26 09:52:52;;;;;;;16.80;11.02;;;;;;;20.07;41.55;100369.75;5051283;28;20025;-79
2023/12/26 09:55:19;;;;;;;17.50;11.57;;;;;;;20.55;40.86;100380.13;5054822;28;20025;-77
2023/12/26 09:57:45;;;;;;;19.52;13.73;;;;;;;19.57;42.65;100371.41;5052384;28;20056;-77
2023/12/26 10:00:11;;;;;;;17.10;10.52;;;;;;;19.26;40.51;100368.69;5051333;28;20025;-78
2023/12/26 10:02:37;;;;;;;14.98;10.07;;;;;;;18.91;40.96;100347.81;5052485;28;20060;-79
2023/12/26 10:05:02;;;;;;;17.98;10.43;;;;;;;17.41;43.72;100340.00;5053215;28;20051;-77
2023/12/26 10:07:28;;;;;;;22.98;12.18;;;;;;;17.03;44.86;100349.91;5051398;28;20059;-77
2023/12/26 10:09:54;;;;;;;19.35;11.43;;;;;;;16.78;44.61;100340.47;5051315;28;20586;-77
2023/12/26 10:12:25;;;;;;;19.15;12.15;;;;;;;16.50;46.02;100328.03;5051095;28;20049;-78
2023/12/26 10:14:57;;;;;;;23.52;13.80;;;;;;;16.24;46.69;100334.97;5053156;28;20033;-78
2023/12/26 10:17:23;;;;;;;49.55;31.17;;;;;;;16.16;46.81;100308.50;5051054;28;20045;-77
2023/12/26 10:19:48;;;;;;;31.75;18.27;;;;;;;16.52;45.66;100325.91;5050722;28;20059;-78
2023/12/26 10:22:14;;;;;;;48.42;25.75;;;;;;;16.81;45.12;100321.13;5050553;28;20471;-78
2023/12/26 10:24:39;;;;;;;62.33;29.45;;;;;;;16.83;43.33;100310.91;5053352;28;20037;-78
2023/12/26 10:27:05;;;;;;;223.43;115.60;;;;;;;17.10;44.94;100314.66;5050677;28;20032;-78
2023/12/26 10:29:30;;;;;;;23.73;15.45;;;;;;;16.57;44.15;100307.13;5050797;28;20039;-78
2023/12/26 10:32:00;;;;;;;100.38;53.00;;;;;;;17.11;43.70;100295.56;5050804;28;20028;-79
2023/12/26 10:34:29;;;;;;;46.72;25.48;;;;;;;16.96;42.85;100282.78;5053404;28;20036;-78
2023/12/26 10:36:54;;;;;;;73.43;45.08;;;;;;;17.60;41.99;100308.88;5050638;28;20055;-79
2023/12/26 10:39:20;;;;;;;81.45;39.28;;;;;;;17.83;41.53;100290.69;5050416;28;20024;-79
2023/12/26 10:41:47;;;;;;;46.50;25.23;;;;;;;18.16;40.29;100291.38;5050260;28;20131;-78
2023/12/26 10:44:15;;;;;;;35.67;21.80;;;;;;;18.05;40.20;100294.03;5050355;28;20106;-78
2023/12/26 10:46:44;;;;;;;24.50;15.27;;;;;;;17.93;39.65;100285.34;5050486;28;20029;-78
2023/12/26 10:49:21;;;;;;;29.98;17.92;;;;;;;18.36;40.44;100283.34;5050363;28;20035;-78
2023/12/26 10:51:48;;;;;;;18.83;11.15;;;;;;;18.67;39.52;100288.84;5050145;28;20118;-78
2023/12/26 10:54:21;;;;;;;18.42;10.10;;;;;;;18.73;38.69;100271.56;5052445;28;20526;-79
2023/12/26 10:56:49;;;;;;;31.92;19.85;;;;;;;18.94;39.13;100277.84;5049329;28;20036;-78
2023/12/26 13:51:43;;;;;;;12.63;7.20;;;;;;;28.53;24.67;100136.31;5027447;28;20040;-78
2023/12/26 13:54:46;;;;;;;12.15;6.18;;;;;;;26.96;28.33;100131.78;5027235;28;20033;-79
2023/12/26 13:57:49;;;;;;;29.60;14.75;;;;;;;24.89;30.02;100128.47;5048758;28;20500;-78
2023/12/26 14:00:52;;;;;;;28.35;13.68;;;;;;;23.10;32.05;100120.47;5047256;28;20037;-79
2023/12/26 14:03:56;;;;;;;57.10;28.60;;;;;;;22.22;33.77;100117.59;5047408;28;20025;-78
2023/12/26 14:06:59;;;;;;;32.67;15.93;;;;;;;21.37;36.73;100108.38;5047322;28;20072;-78